sensor_id;sensor_type;location;lat;lon;timestamp;P1;durP1;ratioP1;P2;durP2;ratioP2
41629;SDS011;27322;49.488;8.480;2023-09-12T00:01:22;11.63;;;4.72;;
41629;SDS011;27322;49.488;8.480;2023-09-12T00:03:47;9.23;;;4.63;;
41629;SDS011;27322;49.488;8.480;2023-09-12T00:06:13;11.30;;;4.90;;
41629;SDS011;27322;49.488;8.480;2023-09-12T00:08:39;8.68;;;4.60;;
41629;SDS011;27322;49.488;8.480;2023-09-12T00:11:05;12.43;;;5.28;;
41629;SDS011;27322;49.488;8.480;2023-09-12T00:13:35;8.77;;;4.90;;
41629;SDS011;27322;49.488;8.480;2023-09-12T00:16:01;10.05;;;4.88;;
41629;SDS011;27322;49.488;8.480;2023-09-12T00:18:26;13.50;;;4.75;;
41629;SDS011;27322;49.488;8.480;2023-09-12T00:20:53;10.80;;;4.82;;
41629;SDS011;27322;49.488;8.480;2023-09-12T00:23:20;9.27;;;4.35;;
41629;SDS011;27322;49.488;8.480;2023-09-12T00:25:46;10.27;;;4.47;;
41629;SDS011;27322;49.488;8.480;2023-09-12T00:28:12;10.38;;;4.43;;
41629;SDS011;27322;49.488;8.480;2023-09-12T00:30:38;8.93;;;4.55;;
41629;SDS011;27322;49.488;8.480;2023-09-12T00:33:03;10.18;;;4.25;;
41629;SDS011;27322;49.488;8.480;2023-09-12T00:35:29;9.65;;;4.85;;
41629;SDS011;27322;49.488;8.480;2023-09-12T00:37:54;10.82;;;4.28;;
41629;SDS011;27322;49.488;8.480;2023-09-12T00:40:20;11.15;;;5.00;;
41629;SDS011;27322;49.488;8.480;2023-09-12T00:42:46;11.45;;;4.65;;
41629;SDS011;27322;49.488;8.480;2023-09-12T00:45:12;12.25;;;5.07;;
41629;SDS011;27322;49.488;8.480;2023-09-12T00:47:37;12.35;;;5.43;;
41629;SDS011;27322;49.488;8.480;2023-09-12T00:50:04;9.13;;;4.47;;
41629;SDS011;27322;49.488;8.480;2023-09-12T00:52:30;11.15;;;4.18;;
41629;SDS011;27322;49.488;8.480;2023-09-12T00:55:00;9.23;;;4.38;;
41629;SDS011;27322;49.488;8.480;2023-09-12T00:57:26;11.43;;;4.72;;
41629;SDS011;27322;49.488;8.480;2023-09-12T00:59:53;9.55;;;4.60;;
41629;SDS011;27322;49.488;8.480;2023-09-12T01:02:20;8.68;;;4.43;;
41629;SDS011;27322;49.488;8.480;2023-09-12T01:04:47;10.90;;;4.10;;
41629;SDS011;27322;49.488;8.480;2023-09-12T01:07:13;8.05;;;4.07;;
41629;SDS011;27322;49.488;8.480;2023-09-12T01:09:40;8.75;;;4.60;;
41629;SDS011;27322;49.488;8.480;2023-09-12T01:12:06;10.40;;;5.30;;
41629;SDS011;27322;49.488;8.480;2023-09-12T01:14:31;11.73;;;5.50;;
41629;SDS011;27322;49.488;8.480;2023-09-12T01:16:57;10.75;;;5.15;;
41629;SDS011;27322;49.488;8.480;2023-09-12T01:19:24;13.63;;;5.18;;
41629;SDS011;27322;49.488;8.480;2023-09-12T01:27:54;10.45;;;4.65;;
41629;SDS011;27322;49.488;8.480;2023-09-12T01:30:22;8.27;;;4.45;;
41629;SDS011;27322;49.488;8.480;2023-09-12T01:32:49;8.85;;;4.45;;
41629;SDS011;27322;49.488;8.480;2023-09-12T01:35:15;8.02;;;4.65;;
41629;SDS011;27322;49.488;8.480;2023-09-12T01:37:41;11.05;;;5.15;;
41629;SDS011;27322;49.488;8.480;2023-09-12T01:40:06;9.60;;;4.70;;
41629;SDS011;27322;49.488;8.480;2023-09-12T01:42:36;12.15;;;4.65;;
41629;SDS011;27322;49.488;8.480;2023-09-12T01:45:03;10.73;;;5.03;;
41629;SDS011;27322;49.488;8.480;2023-09-12T01:47:30;9.90;;;4.63;;
41629;SDS011;27322;49.488;8.480;2023-09-12T01:49:58;11.52;;;5.10;;
41629;SDS011;27322;49.488;8.480;2023-09-12T01:52:26;7.78;;;4.43;;
41629;SDS011;27322;49.488;8.480;2023-09-12T01:54:53;8.18;;;4.78;;
41629;SDS011;27322;49.488;8.480;2023-09-12T01:57:19;8.05;;;4.47;;
41629;SDS011;27322;49.488;8.480;2023-09-12T01:59:46;9.02;;;4.97;;
41629;SDS011;27322;49.488;8.480;2023-09-12T02:02:18;14.45;;;4.78;;
41629;SDS011;27322;49.488;8.480;2023-09-12T02:04:47;9.73;;;5.00;;
41629;SDS011;27322;49.488;8.480;2023-09-12T02:07:31;10.25;;;4.70;;
41629;SDS011;27322;49.488;8.480;2023-09-12T02:09:59;9.30;;;4.45;;
41629;SDS011;27322;49.488;8.480;2023-09-12T02:12:25;7.22;;;4.20;;
41629;SDS011;27322;49.488;8.480;2023-09-12T02:14:51;11.40;;;4.82;;
41629;SDS011;27322;49.488;8.480;2023-09-12T02:17:16;11.60;;;4.63;;
41629;SDS011;27322;49.488;8.480;2023-09-12T02:19:42;7.53;;;4.63;;
41629;SDS011;27322;49.488;8.480;2023-09-12T02:22:07;10.98;;;5.10;;
41629;SDS011;27322;49.488;8.480;2023-09-12T02:24:36;10.20;;;5.50;;
41629;SDS011;27322;49.488;8.480;2023-09-12T02:27:01;11.75;;;5.05;;
41629;SDS011;27322;49.488;8.480;2023-09-12T02:29:27;9.05;;;4.82;;
41629;SDS011;27322;49.488;8.480;2023-09-12T02:31:53;8.52;;;5.13;;
41629;SDS011;27322;49.488;8.480;2023-09-12T02:34:20;8.50;;;4.63;;
41629;SDS011;27322;49.488;8.480;2023-09-12T02:36:46;10.73;;;4.63;;
41629;SDS011;27322;49.488;8.480;2023-09-12T02:39:11;10.57;;;5.03;;
41629;SDS011;27322;49.488;8.480;2023-09-12T02:41:37;12.32;;;5.32;;
41629;SDS011;27322;49.488;8.480;2023-09-12T02:44:02;9.48;;;4.97;;
41629;SDS011;27322;49.488;8.480;2023-09-12T02:46:28;14.18;;;5.53;;
41629;SDS011;27322;49.488;8.480;2023-09-12T02:48:53;11.32;;;5.13;;
41629;SDS011;27322;49.488;8.480;2023-09-12T02:51:19;13.38;;;5.57;;
41629;SDS011;27322;49.488;8.480;2023-09-12T02:53:45;12.23;;;5.03;;
41629;SDS011;27322;49.488;8.480;2023-09-12T02:56:10;13.38;;;5.10;;
41629;SDS011;27322;49.488;8.480;2023-09-12T02:58:36;9.60;;;4.88;;
41629;SDS011;27322;49.488;8.480;2023-09-12T03:01:01;10.15;;;5.40;;
41629;SDS011;27322;49.488;8.480;2023-09-12T03:03:28;8.52;;;5.10;;
41629;SDS011;27322;49.488;8.480;2023-09-12T03:06:00;12.20;;;5.30;;
41629;SDS011;27322;49.488;8.480;2023-09-12T03:08:27;10.13;;;5.10;;
41629;SDS011;27322;49.488;8.480;2023-09-12T03:10:56;13.15;;;5.65;;
41629;SDS011;27322;49.488;8.480;2023-09-12T03:13:26;10.32;;;5.22;;
41629;SDS011;27322;49.488;8.480;2023-09-12T03:15:52;10.32;;;5.10;;
41629;SDS011;27322;49.488;8.480;2023-09-12T03:18:17;9.27;;;4.85;;
41629;SDS011;27322;49.488;8.480;2023-09-12T03:20:43;11.43;;;5.32;;
41629;SDS011;27322;49.488;8.480;2023-09-12T03:23:09;11.50;;;4.72;;
41629;SDS011;27322;49.488;8.480;2023-09-12T03:25:35;8.65;;;4.65;;
41629;SDS011;27322;49.488;8.480;2023-09-12T03:28:03;10.38;;;4.60;;
41629;SDS011;27322;49.488;8.480;2023-09-12T03:30:29;10.38;;;5.15;;
41629;SDS011;27322;49.488;8.480;2023-09-12T03:32:54;10.30;;;5.40;;
41629;SDS011;27322;49.488;8.480;2023-09-12T03:35:20;13.90;;;6.07;;
41629;SDS011;27322;49.488;8.480;2023-09-12T03:37:45;12.52;;;5.47;;
41629;SDS011;27322;49.488;8.480;2023-09-12T03:40:11;10.18;;;5.30;;
41629;SDS011;27322;49.488;8.480;2023-09-12T03:42:37;13.00;;;5.10;;
41629;SDS011;27322;49.488;8.480;2023-09-12T03:45:02;12.73;;;6.00;;
41629;SDS011;27322;49.488;8.480;2023-09-12T03:47:28;10.38;;;5.35;;
41629;SDS011;27322;49.488;8.480;2023-09-12T03:49:54;11.30;;;5.70;;
41629;SDS011;27322;49.488;8.480;2023-09-12T03:52:20;11.10;;;5.20;;
41629;SDS011;27322;49.488;8.480;2023-09-12T03:54:45;11.35;;;4.90;;
41629;SDS011;27322;49.488;8.480;2023-09-12T03:57:11;11.23;;;5.57;;
41629;SDS011;27322;49.488;8.480;2023-09-12T03:59:36;10.52;;;5.35;;
41629;SDS011;27322;49.488;8.480;2023-09-12T04:02:03;9.73;;;5.30;;
41629;SDS011;27322;49.488;8.480;2023-09-12T04:04:28;10.18;;;5.07;;
41629;SDS011;27322;49.488;8.480;2023-09-12T04:06:54;9.38;;;5.45;;
41629;SDS011;27322;49.488;8.480;2023-09-12T04:09:20;11.30;;;5.72;;
41629;SDS011;27322;49.488;8.480;2023-09-12T04:11:46;11.30;;;5.90;;
41629;SDS011;27322;49.488;8.480;2023-09-12T04:14:12;12.07;;;5.40;;
41629;SDS011;27322;49.488;8.480;2023-09-12T04:16:38;12.38;;;6.13;;
41629;SDS011;27322;49.488;8.480;2023-09-12T04:19:04;12.35;;;5.78;;
41629;SDS011;27322;49.488;8.480;2023-09-12T04:21:30;10.23;;;5.57;;
41629;SDS011;27322;49.488;8.480;2023-09-12T04:23:55;13.95;;;5.55;;
41629;SDS011;27322;49.488;8.480;2023-09-12T04:26:21;11.55;;;5.72;;
41629;SDS011;27322;49.488;8.480;2023-09-12T04:28:47;12.02;;;5.55;;
41629;SDS011;27322;49.488;8.480;2023-09-12T04:31:12;10.27;;;5.25;;
41629;SDS011;27322;49.488;8.480;2023-09-12T04:33:38;10.48;;;5.72;;
41629;SDS011;27322;49.488;8.480;2023-09-12T04:36:04;8.02;;;4.90;;
41629;SDS011;27322;49.488;8.480;2023-09-12T04:38:30;9.88;;;5.43;;
41629;SDS011;27322;49.488;8.480;2023-09-12T04:40:59;11.85;;;5.85;;
41629;SDS011;27322;49.488;8.480;2023-09-12T04:43:29;13.02;;;6.20;;
41629;SDS011;27322;49.488;8.480;2023-09-12T04:45:58;9.93;;;5.60;;
41629;SDS011;27322;49.488;8.480;2023-09-12T04:48:24;11.57;;;5.65;;
41629;SDS011;27322;49.488;8.480;2023-09-12T04:50:49;11.80;;;5.65;;
41629;SDS011;27322;49.488;8.480;2023-09-12T04:53:15;11.57;;;5.35;;
41629;SDS011;27322;49.488;8.480;2023-09-12T04:55:41;12.10;;;5.90;;
41629;SDS011;27322;49.488;8.480;2023-09-12T04:58:06;10.73;;;4.70;;
41629;SDS011;27322;49.488;8.480;2023-09-12T05:00:32;12.00;;;5.10;;
41629;SDS011;27322;49.488;8.480;2023-09-12T05:02:59;11.88;;;5.53;;
41629;SDS011;27322;49.488;8.480;2023-09-12T05:05:26;10.23;;;5.10;;
41629;SDS011;27322;49.488;8.480;2023-09-12T05:07:51;12.48;;;5.80;;
41629;SDS011;27322;49.488;8.480;2023-09-12T05:10:17;11.77;;;6.05;;
41629;SDS011;27322;49.488;8.480;2023-09-12T05:12:44;13.13;;;6.05;;
41629;SDS011;27322;49.488;8.480;2023-09-12T05:15:09;14.57;;;5.40;;
41629;SDS011;27322;49.488;8.480;2023-09-12T05:17:35;15.50;;;6.30;;
41629;SDS011;27322;49.488;8.480;2023-09-12T05:20:01;11.25;;;5.65;;
41629;SDS011;27322;49.488;8.480;2023-09-12T05:22:28;9.73;;;4.97;;
41629;SDS011;27322;49.488;8.480;2023-09-12T05:24:54;12.82;;;5.50;;
41629;SDS011;27322;49.488;8.480;2023-09-12T05:27:19;12.65;;;6.00;;
41629;SDS011;27322;49.488;8.480;2023-09-12T05:29:45;12.98;;;6.07;;
41629;SDS011;27322;49.488;8.480;2023-09-12T05:32:10;10.27;;;5.35;;
41629;SDS011;27322;49.488;8.480;2023-09-12T05:37:58;13.10;;;6.18;;
41629;SDS011;27322;49.488;8.480;2023-09-12T05:40:24;11.48;;;5.57;;
41629;SDS011;27322;49.488;8.480;2023-09-12T05:46:12;13.60;;;6.13;;
41629;SDS011;27322;49.488;8.480;2023-09-12T05:48:37;11.18;;;6.00;;
41629;SDS011;27322;49.488;8.480;2023-09-12T05:51:03;11.38;;;6.45;;
41629;SDS011;27322;49.488;8.480;2023-09-12T05:53:28;12.15;;;6.10;;
41629;SDS011;27322;49.488;8.480;2023-09-12T05:55:55;14.18;;;6.05;;
41629;SDS011;27322;49.488;8.480;2023-09-12T05:58:21;12.07;;;5.47;;
41629;SDS011;27322;49.488;8.480;2023-09-12T06:00:46;19.30;;;6.32;;
41629;SDS011;27322;49.488;8.480;2023-09-12T06:03:13;13.82;;;6.80;;
41629;SDS011;27322;49.488;8.480;2023-09-12T06:05:39;16.40;;;6.70;;
41629;SDS011;27322;49.488;8.480;2023-09-12T06:08:05;14.13;;;5.85;;
41629;SDS011;27322;49.488;8.480;2023-09-12T06:10:30;12.80;;;6.07;;
41629;SDS011;27322;49.488;8.480;2023-09-12T06:12:56;15.02;;;6.10;;
41629;SDS011;27322;49.488;8.480;2023-09-12T06:15:22;12.05;;;6.00;;
41629;SDS011;27322;49.488;8.480;2023-09-12T06:17:47;16.13;;;5.80;;
41629;SDS011;27322;49.488;8.480;2023-09-12T06:20:13;12.73;;;6.00;;
41629;SDS011;27322;49.488;8.480;2023-09-12T06:22:38;11.13;;;5.70;;
41629;SDS011;27322;49.488;8.480;2023-09-12T06:25:05;13.50;;;6.88;;
41629;SDS011;27322;49.488;8.480;2023-09-12T06:27:31;12.18;;;5.57;;
41629;SDS011;27322;49.488;8.480;2023-09-12T06:29:56;12.25;;;6.28;;
41629;SDS011;27322;49.488;8.480;2023-09-12T06:32:22;17.08;;;6.57;;
41629;SDS011;27322;49.488;8.480;2023-09-12T06:34:48;11.40;;;6.53;;
41629;SDS011;27322;49.488;8.480;2023-09-12T06:37:13;12.63;;;5.97;;
41629;SDS011;27322;49.488;8.480;2023-09-12T06:39:39;15.57;;;6.25;;
41629;SDS011;27322;49.488;8.480;2023-09-12T06:42:04;16.02;;;5.65;;
41629;SDS011;27322;49.488;8.480;2023-09-12T06:44:31;19.92;;;6.53;;
41629;SDS011;27322;49.488;8.480;2023-09-12T06:46:56;14.52;;;5.97;;
41629;SDS011;27322;49.488;8.480;2023-09-12T06:49:22;16.40;;;6.18;;
41629;SDS011;27322;49.488;8.480;2023-09-12T06:51:47;14.30;;;6.63;;
41629;SDS011;27322;49.488;8.480;2023-09-12T06:54:13;13.15;;;6.50;;
41629;SDS011;27322;49.488;8.480;2023-09-12T06:56:40;16.27;;;5.68;;
41629;SDS011;27322;49.488;8.480;2023-09-12T06:59:07;18.02;;;6.68;;
41629;SDS011;27322;49.488;8.480;2023-09-12T07:01:33;18.27;;;6.75;;
41629;SDS011;27322;49.488;8.480;2023-09-12T07:03:59;14.25;;;6.97;;
41629;SDS011;27322;49.488;8.480;2023-09-12T07:06:24;14.13;;;7.28;;
41629;SDS011;27322;49.488;8.480;2023-09-12T07:08:50;15.38;;;6.70;;
41629;SDS011;27322;49.488;8.480;2023-09-12T07:11:18;14.93;;;7.10;;
41629;SDS011;27322;49.488;8.480;2023-09-12T07:13:44;19.58;;;8.15;;
41629;SDS011;27322;49.488;8.480;2023-09-12T07:16:10;14.50;;;6.70;;
41629;SDS011;27322;49.488;8.480;2023-09-12T07:18:36;14.07;;;6.82;;
41629;SDS011;27322;49.488;8.480;2023-09-12T07:21:03;12.25;;;7.30;;
41629;SDS011;27322;49.488;8.480;2023-09-12T07:23:29;14.43;;;6.25;;
41629;SDS011;27322;49.488;8.480;2023-09-12T07:25:57;13.18;;;6.22;;
41629;SDS011;27322;49.488;8.480;2023-09-12T07:28:23;13.60;;;6.13;;
41629;SDS011;27322;49.488;8.480;2023-09-12T07:30:49;12.55;;;6.18;;
41629;SDS011;27322;49.488;8.480;2023-09-12T07:33:15;10.77;;;5.40;;
41629;SDS011;27322;49.488;8.480;2023-09-12T07:35:41;16.13;;;6.38;;
41629;SDS011;27322;49.488;8.480;2023-09-12T07:38:06;18.83;;;5.75;;
41629;SDS011;27322;49.488;8.480;2023-09-12T07:40:32;15.60;;;6.05;;
41629;SDS011;27322;49.488;8.480;2023-09-12T07:42:57;15.38;;;6.40;;
41629;SDS011;27322;49.488;8.480;2023-09-12T07:45:23;12.30;;;5.55;;
41629;SDS011;27322;49.488;8.480;2023-09-12T07:47:49;10.95;;;5.88;;
41629;SDS011;27322;49.488;8.480;2023-09-12T07:50:15;11.68;;;5.60;;
41629;SDS011;27322;49.488;8.480;2023-09-12T07:52:40;14.65;;;6.05;;
41629;SDS011;27322;49.488;8.480;2023-09-12T07:55:06;16.45;;;7.03;;
41629;SDS011;27322;49.488;8.480;2023-09-12T07:57:33;12.90;;;6.60;;
41629;SDS011;27322;49.488;8.480;2023-09-12T07:59:59;11.80;;;5.53;;
41629;SDS011;27322;49.488;8.480;2023-09-12T08:02:25;15.65;;;6.70;;
41629;SDS011;27322;49.488;8.480;2023-09-12T08:04:50;14.05;;;5.95;;
41629;SDS011;27322;49.488;8.480;2023-09-12T08:07:16;10.55;;;5.45;;
41629;SDS011;27322;49.488;8.480;2023-09-12T08:09:52;13.10;;;5.75;;
41629;SDS011;27322;49.488;8.480;2023-09-12T08:12:19;9.73;;;5.45;;
41629;SDS011;27322;49.488;8.480;2023-09-12T08:14:46;15.07;;;5.75;;
41629;SDS011;27322;49.488;8.480;2023-09-12T08:17:13;16.30;;;6.40;;
41629;SDS011;27322;49.488;8.480;2023-09-12T08:19:39;10.88;;;5.43;;
41629;SDS011;27322;49.488;8.480;2023-09-12T08:22:05;12.60;;;5.30;;
41629;SDS011;27322;49.488;8.480;2023-09-12T08:24:32;9.77;;;5.20;;
41629;SDS011;27322;49.488;8.480;2023-09-12T08:26:58;10.73;;;5.30;;
41629;SDS011;27322;49.488;8.480;2023-09-12T08:29:24;10.77;;;5.22;;
41629;SDS011;27322;49.488;8.480;2023-09-12T08:31:50;13.50;;;4.72;;
41629;SDS011;27322;49.488;8.480;2023-09-12T08:34:15;9.02;;;4.72;;
41629;SDS011;27322;49.488;8.480;2023-09-12T08:36:41;9.05;;;5.20;;
41629;SDS011;27322;49.488;8.480;2023-09-12T08:39:10;9.15;;;4.72;;
41629;SDS011;27322;49.488;8.480;2023-09-12T08:41:39;10.75;;;5.03;;
41629;SDS011;27322;49.488;8.480;2023-09-12T08:44:07;12.02;;;4.75;;
41629;SDS011;27322;49.488;8.480;2023-09-12T08:46:33;13.75;;;5.05;;
41629;SDS011;27322;49.488;8.480;2023-09-12T08:48:59;10.13;;;4.90;;
41629;SDS011;27322;49.488;8.480;2023-09-12T08:51:25;10.32;;;5.20;;
41629;SDS011;27322;49.488;8.480;2023-09-12T08:53:51;11.68;;;5.10;;
41629;SDS011;27322;49.488;8.480;2023-09-12T08:56:17;12.02;;;5.47;;
41629;SDS011;27322;49.488;8.480;2023-09-12T08:58:44;13.75;;;5.50;;
41629;SDS011;27322;49.488;8.480;2023-09-12T09:01:10;9.30;;;5.30;;
41629;SDS011;27322;49.488;8.480;2023-09-12T09:03:39;11.30;;;6.05;;
41629;SDS011;27322;49.488;8.480;2023-09-12T09:06:08;15.90;;;5.30;;
41629;SDS011;27322;49.488;8.480;2023-09-12T09:08:35;9.63;;;5.53;;
41629;SDS011;27322;49.488;8.480;2023-09-12T09:11:01;9.20;;;5.03;;
41629;SDS011;27322;49.488;8.480;2023-09-12T09:13:28;8.30;;;4.70;;
41629;SDS011;27322;49.488;8.480;2023-09-12T09:16:10;9.95;;;5.65;;
41629;SDS011;27322;49.488;8.480;2023-09-12T09:18:51;12.30;;;5.65;;
41629;SDS011;27322;49.488;8.480;2023-09-12T09:23:51;11.70;;;5.30;;
41629;SDS011;27322;49.488;8.480;2023-09-12T09:26:17;10.20;;;5.57;;
41629;SDS011;27322;49.488;8.480;2023-09-12T09:28:43;11.05;;;5.10;;
41629;SDS011;27322;49.488;8.480;2023-09-12T09:31:12;8.13;;;5.57;;
41629;SDS011;27322;49.488;8.480;2023-09-12T09:33:41;10.95;;;5.20;;
41629;SDS011;27322;49.488;8.480;2023-09-12T09:36:13;8.68;;;5.30;;
41629;SDS011;27322;49.488;8.480;2023-09-12T09:38:39;8.57;;;5.07;;
41629;SDS011;27322;49.488;8.480;2023-09-12T09:41:06;11.95;;;5.57;;
41629;SDS011;27322;49.488;8.480;2023-09-12T09:43:32;16.48;;;5.80;;
41629;SDS011;27322;49.488;8.480;2023-09-12T09:45:58;12.38;;;5.40;;
41629;SDS011;27322;49.488;8.480;2023-09-12T09:48:24;17.17;;;5.80;;
41629;SDS011;27322;49.488;8.480;2023-09-12T09:50:52;9.80;;;5.22;;
41629;SDS011;27322;49.488;8.480;2023-09-12T09:53:21;10.55;;;4.72;;
41629;SDS011;27322;49.488;8.480;2023-09-12T09:56:02;7.88;;;4.55;;
41629;SDS011;27322;49.488;8.480;2023-09-12T09:58:33;12.23;;;5.10;;
41629;SDS011;27322;49.488;8.480;2023-09-12T10:00:59;7.35;;;4.70;;
41629;SDS011;27322;49.488;8.480;2023-09-12T10:03:26;7.45;;;4.60;;
41629;SDS011;27322;49.488;8.480;2023-09-12T10:05:54;8.93;;;4.22;;
41629;SDS011;27322;49.488;8.480;2023-09-12T10:08:21;8.40;;;3.70;;
41629;SDS011;27322;49.488;8.480;2023-09-12T10:10:49;7.57;;;3.55;;
41629;SDS011;27322;49.488;8.480;2023-09-12T10:13:16;6.97;;;3.28;;
41629;SDS011;27322;49.488;8.480;2023-09-12T10:15:44;5.00;;;3.00;;
41629;SDS011;27322;49.488;8.480;2023-09-12T10:18:12;8.32;;;3.70;;
41629;SDS011;27322;49.488;8.480;2023-09-12T10:20:54;5.80;;;3.40;;
41629;SDS011;27322;49.488;8.480;2023-09-12T10:23:27;8.30;;;3.80;;
41629;SDS011;27322;49.488;8.480;2023-09-12T10:26:06;6.75;;;3.45;;
41629;SDS011;27322;49.488;8.480;2023-09-12T10:28:42;9.50;;;4.40;;
41629;SDS011;27322;49.488;8.480;2023-09-12T10:31:08;9.52;;;3.78;;
41629;SDS011;27322;49.488;8.480;2023-09-12T10:33:35;6.30;;;3.80;;
41629;SDS011;27322;49.488;8.480;2023-09-12T10:36:05;8.25;;;4.10;;
41629;SDS011;27322;49.488;8.480;2023-09-12T10:38:33;5.70;;;3.55;;
41629;SDS011;27322;49.488;8.480;2023-09-12T10:41:05;7.50;;;3.65;;
41629;SDS011;27322;49.488;8.480;2023-09-12T10:43:34;12.98;;;4.72;;
41629;SDS011;27322;49.488;8.480;2023-09-12T10:46:01;8.45;;;4.55;;
41629;SDS011;27322;49.488;8.480;2023-09-12T10:48:28;8.43;;;4.00;;
41629;SDS011;27322;49.488;8.480;2023-09-12T10:50:56;9.98;;;4.28;;
41629;SDS011;27322;49.488;8.480;2023-09-12T10:53:24;8.00;;;4.28;;
41629;SDS011;27322;49.488;8.480;2023-09-12T10:55:59;10.25;;;5.50;;
41629;SDS011;27322;49.488;8.480;2023-09-12T10:58:25;10.75;;;6.00;;
41629;SDS011;27322;49.488;8.480;2023-09-12T11:03:52;8.45;;;4.90;;
41629;SDS011;27322;49.488;8.480;2023-09-12T11:06:35;6.95;;;4.40;;
41629;SDS011;27322;49.488;8.480;2023-09-12T11:11:41;8.13;;;4.40;;
41629;SDS011;27322;49.488;8.480;2023-09-12T11:14:08;10.05;;;4.43;;
41629;SDS011;27322;49.488;8.480;2023-09-12T11:16:34;9.95;;;4.70;;
41629;SDS011;27322;49.488;8.480;2023-09-12T11:21:40;10.00;;;4.90;;
41629;SDS011;27322;49.488;8.480;2023-09-12T11:24:13;10.13;;;5.33;;
41629;SDS011;27322;49.488;8.480;2023-09-12T11:26:52;9.43;;;5.28;;
41629;SDS011;27322;49.488;8.480;2023-09-12T11:29:19;8.32;;;4.90;;
41629;SDS011;27322;49.488;8.480;2023-09-12T11:31:54;9.38;;;4.85;;
41629;SDS011;27322;49.488;8.480;2023-09-12T11:34:24;8.10;;;5.00;;
41629;SDS011;27322;49.488;8.480;2023-09-12T11:36:54;10.52;;;4.53;;
41629;SDS011;27322;49.488;8.480;2023-09-12T11:39:27;12.73;;;4.85;;
41629;SDS011;27322;49.488;8.480;2023-09-12T11:41:57;10.50;;;4.50;;
41629;SDS011;27322;49.488;8.480;2023-09-12T11:44:24;10.07;;;4.78;;
41629;SDS011;27322;49.488;8.480;2023-09-12T11:46:51;9.55;;;4.70;;
41629;SDS011;27322;49.488;8.480;2023-09-12T11:49:17;8.95;;;4.45;;
41629;SDS011;27322;49.488;8.480;2023-09-12T11:51:51;9.40;;;4.97;;
41629;SDS011;27322;49.488;8.480;2023-09-12T11:54:18;8.80;;;4.90;;
41629;SDS011;27322;49.488;8.480;2023-09-12T11:56:48;10.05;;;5.43;;
41629;SDS011;27322;49.488;8.480;2023-09-12T11:59:14;16.15;;;5.07;;
41629;SDS011;27322;49.488;8.480;2023-09-12T12:01:43;9.75;;;5.15;;
41629;SDS011;27322;49.488;8.480;2023-09-12T12:04:10;12.50;;;5.20;;
41629;SDS011;27322;49.488;8.480;2023-09-12T12:06:35;8.10;;;4.50;;
41629;SDS011;27322;49.488;8.480;2023-09-12T12:09:01;9.65;;;4.80;;
41629;SDS011;27322;49.488;8.480;2023-09-12T12:11:29;8.55;;;4.50;;
41629;SDS011;27322;49.488;8.480;2023-09-12T12:13:56;7.85;;;4.82;;
41629;SDS011;27322;49.488;8.480;2023-09-12T12:16:21;13.20;;;4.63;;
41629;SDS011;27322;49.488;8.480;2023-09-12T12:18:47;7.03;;;4.45;;
41629;SDS011;27322;49.488;8.480;2023-09-12T12:21:13;9.57;;;4.80;;
41629;SDS011;27322;49.488;8.480;2023-09-12T12:23:39;9.65;;;4.43;;
41629;SDS011;27322;49.488;8.480;2023-09-12T12:26:08;7.53;;;4.57;;
41629;SDS011;27322;49.488;8.480;2023-09-12T12:28:35;8.98;;;4.38;;
41629;SDS011;27322;49.488;8.480;2023-09-12T12:31:00;8.90;;;4.60;;
41629;SDS011;27322;49.488;8.480;2023-09-12T12:33:26;8.10;;;4.22;;
41629;SDS011;27322;49.488;8.480;2023-09-12T12:35:59;11.13;;;4.50;;
41629;SDS011;27322;49.488;8.480;2023-09-12T12:38:31;10.07;;;4.38;;
41629;SDS011;27322;49.488;8.480;2023-09-12T12:41:01;8.35;;;4.32;;
41629;SDS011;27322;49.488;8.480;2023-09-12T12:43:27;9.48;;;4.15;;
41629;SDS011;27322;49.488;8.480;2023-09-12T12:45:56;13.13;;;4.57;;
41629;SDS011;27322;49.488;8.480;2023-09-12T12:48:30;7.63;;;4.50;;
41629;SDS011;27322;49.488;8.480;2023-09-12T12:50:56;10.75;;;5.07;;
41629;SDS011;27322;49.488;8.480;2023-09-12T12:53:38;7.78;;;4.30;;
41629;SDS011;27322;49.488;8.480;2023-09-12T12:56:04;15.27;;;5.15;;
41629;SDS011;27322;49.488;8.480;2023-09-12T12:58:30;14.32;;;5.00;;
41629;SDS011;27322;49.488;8.480;2023-09-12T13:00:55;9.07;;;4.13;;
41629;SDS011;27322;49.488;8.480;2023-09-12T13:03:21;10.90;;;4.10;;
41629;SDS011;27322;49.488;8.480;2023-09-12T13:05:46;11.48;;;4.35;;
41629;SDS011;27322;49.488;8.480;2023-09-12T13:08:12;7.95;;;4.32;;
41629;SDS011;27322;49.488;8.480;2023-09-12T13:10:38;6.95;;;4.30;;
41629;SDS011;27322;49.488;8.480;2023-09-12T13:13:03;9.73;;;4.65;;
41629;SDS011;27322;49.488;8.480;2023-09-12T13:15:29;8.25;;;4.22;;
41629;SDS011;27322;49.488;8.480;2023-09-12T13:17:55;7.47;;;4.30;;
41629;SDS011;27322;49.488;8.480;2023-09-12T13:20:20;8.10;;;4.47;;
41629;SDS011;27322;49.488;8.480;2023-09-12T13:22:46;9.63;;;4.40;;
41629;SDS011;27322;49.488;8.480;2023-09-12T13:25:11;8.75;;;4.53;;
41629;SDS011;27322;49.488;8.480;2023-09-12T13:27:37;8.90;;;4.40;;
41629;SDS011;27322;49.488;8.480;2023-09-12T13:30:03;9.75;;;5.00;;
41629;SDS011;27322;49.488;8.480;2023-09-12T13:32:29;11.18;;;4.65;;
41629;SDS011;27322;49.488;8.480;2023-09-12T13:34:55;12.13;;;5.40;;
41629;SDS011;27322;49.488;8.480;2023-09-12T13:37:20;10.10;;;4.32;;
41629;SDS011;27322;49.488;8.480;2023-09-12T13:39:46;12.88;;;5.18;;
41629;SDS011;27322;49.488;8.480;2023-09-12T13:42:14;12.10;;;4.65;;
41629;SDS011;27322;49.488;8.480;2023-09-12T13:44:44;8.63;;;4.20;;
41629;SDS011;27322;49.488;8.480;2023-09-12T13:47:10;6.95;;;4.10;;
41629;SDS011;27322;49.488;8.480;2023-09-12T13:49:35;7.72;;;4.22;;
41629;SDS011;27322;49.488;8.480;2023-09-12T13:52:01;7.90;;;3.97;;
41629;SDS011;27322;49.488;8.480;2023-09-12T13:54:27;8.93;;;4.70;;
41629;SDS011;27322;49.488;8.480;2023-09-12T13:56:53;9.18;;;4.57;;
41629;SDS011;27322;49.488;8.480;2023-09-12T13:59:18;7.88;;;4.57;;
41629;SDS011;27322;49.488;8.480;2023-09-12T14:01:45;8.63;;;4.70;;
41629;SDS011;27322;49.488;8.480;2023-09-12T14:04:11;8.50;;;4.50;;
41629;SDS011;27322;49.488;8.480;2023-09-12T14:06:38;8.82;;;4.70;;
41629;SDS011;27322;49.488;8.480;2023-09-12T14:09:04;8.32;;;4.45;;
41629;SDS011;27322;49.488;8.480;2023-09-12T14:11:30;8.20;;;4.57;;
41629;SDS011;27322;49.488;8.480;2023-09-12T14:13:55;8.75;;;4.40;;
41629;SDS011;27322;49.488;8.480;2023-09-12T14:16:21;11.57;;;4.70;;
41629;SDS011;27322;49.488;8.480;2023-09-12T14:18:47;15.13;;;5.00;;
41629;SDS011;27322;49.488;8.480;2023-09-12T14:21:12;17.38;;;5.05;;
41629;SDS011;27322;49.488;8.480;2023-09-12T14:23:38;11.65;;;4.57;;
41629;SDS011;27322;49.488;8.480;2023-09-12T14:26:03;11.20;;;4.63;;
41629;SDS011;27322;49.488;8.480;2023-09-12T14:28:29;11.40;;;4.43;;
41629;SDS011;27322;49.488;8.480;2023-09-12T14:30:57;9.35;;;4.50;;
41629;SDS011;27322;49.488;8.480;2023-09-12T14:33:22;11.07;;;4.63;;
41629;SDS011;27322;49.488;8.480;2023-09-12T14:35:48;10.63;;;4.93;;
41629;SDS011;27322;49.488;8.480;2023-09-12T14:38:14;9.25;;;4.95;;
41629;SDS011;27322;49.488;8.480;2023-09-12T14:40:39;7.70;;;4.47;;
41629;SDS011;27322;49.488;8.480;2023-09-12T14:43:05;8.60;;;4.82;;
41629;SDS011;27322;49.488;8.480;2023-09-12T14:45:33;8.13;;;4.95;;
41629;SDS011;27322;49.488;8.480;2023-09-12T14:47:58;10.60;;;4.35;;
41629;SDS011;27322;49.488;8.480;2023-09-12T14:50:24;6.95;;;4.40;;
41629;SDS011;27322;49.488;8.480;2023-09-12T14:52:54;7.95;;;3.85;;
41629;SDS011;27322;49.488;8.480;2023-09-12T14:55:19;6.95;;;4.15;;
41629;SDS011;27322;49.488;8.480;2023-09-12T14:57:45;8.90;;;4.55;;
41629;SDS011;27322;49.488;8.480;2023-09-12T15:00:11;10.18;;;4.20;;
41629;SDS011;27322;49.488;8.480;2023-09-12T15:02:36;10.25;;;4.40;;